Time;durP1;ratioP1;P1;durP2;ratioP2;P2;SDS_P1;SDS_P2;PMS_P1;PMS_P2;Temp;Humidity;BMP_temperature;BMP_pressure;BME280_temperature;BME280_humidity;BME280_pressure;Samples;Min_cycle;Max_cycle;Signal;HPM_P1;HPM_P2
2022/09/22 00:00:06;;;;;;;15.30;11.13;;;;;;;;;;760683;183;918120;-59
2022/09/22 00:02:32;;;;;;;18.43;11.67;;;;;;;;;;761366;183;870757;-57
2022/09/22 00:04:58;;;;;;;21.30;13.17;;;;;;;;;;753443;183;919026;-56
2022/09/22 00:07:24;;;;;;;15.70;11.87;;;;;;;;;;756705;184;919712;-57
2022/09/22 00:09:50;;;;;;;15.30;11.50;;;;;;;;;;761351;183;918723;-55
2022/09/22 00:12:15;;;;;;;18.47;11.60;;;;;;;;;;757293;183;918616;-57
2022/09/22 00:14:41;;;;;;;20.50;12.60;;;;;;;;;;754973;183;921450;-56
2022/09/22 00:17:07;;;;;;;17.87;12.00;;;;;;;;;;756242;183;914815;-57
2022/09/22 00:19:33;;;;;;;20.50;13.00;;;;;;;;;;760228;183;917505;-56
2022/09/22 00:21:59;;;;;;;19.20;11.90;;;;;;;;;;755832;183;915898;-58
2022/09/22 00:24:25;;;;;;;17.07;11.53;;;;;;;;;;755528;183;917900;-57
2022/09/22 00:26:51;;;;;;;17.80;11.70;;;;;;;;;;758356;184;917697;-56
2022/09/22 00:29:17;;;;;;;16.63;12.97;;;;;;;;;;765172;183;913958;-59
2022/09/22 00:31:42;;;;;;;16.30;12.37;;;;;;;;;;759039;181;917852;-58
2022/09/22 00:34:08;;;;;;;22.50;12.80;;;;;;;;;;767069;183;916519;-58
2022/09/22 00:36:34;;;;;;;18.03;12.20;;;;;;;;;;763832;183;919352;-57
2022/09/22 00:39:00;;;;;;;18.35;13.55;;;;;;;;;;756762;183;918996;-57
2022/09/22 00:41:26;;;;;;;20.40;13.03;;;;;;;;;;755044;183;918571;-57
2022/09/22 00:44:07;;;;;;;21.53;14.70;;;;;;;;;;756874;184;918388;-57
2022/09/22 00:46:33;;;;;;;19.87;14.03;;;;;;;;;;767814;180;817763;-56
2022/09/22 00:48:58;;;;;;;20.40;13.60;;;;;;;;;;758043;183;919737;-55
2022/09/22 00:51:24;;;;;;;20.80;13.87;;;;;;;;;;766409;180;819753;-58
2022/09/22 00:53:50;;;;;;;21.50;13.53;;;;;;;;;;779980;180;919132;-58
2022/09/22 00:56:18;;;;;;;19.20;13.47;;;;;;;;;;760148;183;921125;-57
2022/09/22 00:58:43;;;;;;;21.63;13.50;;;;;;;;;;753342;184;919624;-58
2022/09/22 01:01:09;;;;;;;19.93;13.93;;;;;;;;;;760615;183;917290;-57
2022/09/22 01:03:38;;;;;;;24.37;15.87;;;;;;;;;;755471;184;818483;-57
2022/09/22 01:06:01;;;;;;;18.37;12.87;;;;;;;;;;758568;184;921432;-57
2022/09/22 01:08:27;;;;;;;16.43;12.83;;;;;;;;;;755214;183;919428;-59
2022/09/22 01:10:53;;;;;;;15.33;11.63;;;;;;;;;;763301;182;919735;-59
2022/09/22 01:13:25;;;;;;;20.13;13.17;;;;;;;;;;755702;183;909013;-58
2022/09/22 01:15:51;;;;;;;21.85;13.60;;;;;;;;;;767051;179;918270;-56
2022/09/22 01:18:18;;;;;;;17.23;12.47;;;;;;;;;;778128;180;919460;-57
2022/09/22 01:20:45;;;;;;;16.90;12.50;;;;;;;;;;772267;180;900147;-59
2022/09/22 01:23:14;;;;;;;17.10;11.20;;;;;;;;;;766698;180;917322;-57
2022/09/22 01:25:53;;;;;;;14.70;10.73;;;;;;;;;;746509;184;894670;-57
2022/09/22 01:28:24;;;;;;;14.20;10.93;;;;;;;;;;755198;183;919529;-57
2022/09/22 01:30:49;;;;;;;16.77;10.10;;;;;;;;;;765016;181;918678;-59
2022/09/22 01:33:17;;;;;;;14.77;9.87;;;;;;;;;;764255;181;919441;-57
2022/09/22 01:35:43;;;;;;;15.70;10.90;;;;;;;;;;756492;183;918262;-58
2022/09/22 01:38:12;;;;;;;16.90;11.37;;;;;;;;;;759528;184;921236;-56
2022/09/22 01:40:41;;;;;;;18.23;12.20;;;;;;;;;;770915;182;916012;-57
2022/09/22 01:43:20;;;;;;;18.07;12.47;;;;;;;;;;769027;179;919763;-58
2022/09/22 01:45:47;;;;;;;20.00;12.13;;;;;;;;;;775003;179;918922;-58
2022/09/22 01:48:20;;;;;;;14.80;12.03;;;;;;;;;;771973;180;920282;-58
2022/09/22 01:51:04;;;;;;;20.17;12.30;;;;;;;;;;778602;177;818707;-56
2022/09/22 01:53:29;;;;;;;16.60;11.30;;;;;;;;;;767025;183;918469;-57
2022/09/22 01:55:58;;;;;;;18.17;12.50;;;;;;;;;;758820;183;918447;-57
2022/09/22 01:58:21;;;;;;;20.23;11.70;;;;;;;;;;751884;184;919315;-57
2022/09/22 02:00:47;;;;;;;18.53;12.87;;;;;;;;;;756505;183;919333;-58
2022/09/22 02:03:13;;;;;;;16.47;11.93;;;;;;;;;;759033;183;897158;-56
2022/09/22 02:05:41;;;;;;;17.70;10.97;;;;;;;;;;764861;182;918162;-57
2022/09/22 02:08:08;;;;;;;19.60;11.57;;;;;;;;;;774318;179;913017;-57
2022/09/22 02:10:33;;;;;;;18.47;11.33;;;;;;;;;;764738;181;817949;-57
2022/09/22 02:12:59;;;;;;;13.70;9.43;;;;;;;;;;757004;183;914129;-57
2022/09/22 02:17:56;;;;;;;14.60;9.77;;;;;;;;;;769984;182;914430;-58
2022/09/22 02:20:24;;;;;;;10.13;8.00;;;;;;;;;;767933;182;930985;-56
2022/09/22 02:22:48;;;;;;;11.90;8.27;;;;;;;;;;758579;183;916175;-56
2022/09/22 02:25:14;;;;;;;12.30;8.85;;;;;;;;;;751770;183;914249;-57
2022/09/22 02:27:40;;;;;;;10.60;8.20;;;;;;;;;;756261;183;916799;-58
2022/09/22 02:30:07;;;;;;;11.53;8.10;;;;;;;;;;762826;183;817263;-56
2022/09/22 02:32:32;;;;;;;14.83;9.97;;;;;;;;;;763054;183;917817;-58
2022/09/22 02:34:59;;;;;;;12.02;8.85;;;;;;;;;;766632;183;919380;-58
2022/09/22 02:37:25;;;;;;;16.43;10.90;;;;;;;;;;762373;183;920536;-56
2022/09/22 02:39:51;;;;;;;14.90;10.20;;;;;;;;;;754404;183;916065;-56
2022/09/22 02:42:17;;;;;;;14.97;10.57;;;;;;;;;;755459;183;919906;-57
2022/09/22 02:44:43;;;;;;;13.30;10.00;;;;;;;;;;765894;183;918674;-56
2022/09/22 02:47:09;;;;;;;14.97;11.10;;;;;;;;;;755421;183;918091;-57
2022/09/22 02:49:35;;;;;;;14.30;11.20;;;;;;;;;;759340;183;918969;-58
2022/09/22 02:52:01;;;;;;;18.03;12.37;;;;;;;;;;759393;183;919565;-58
2022/09/22 02:54:27;;;;;;;22.97;12.20;;;;;;;;;;756560;181;918995;-57
2022/09/22 02:56:52;;;;;;;16.80;11.63;;;;;;;;;;763152;181;920264;-57
2022/09/22 02:59:18;;;;;;;19.30;13.13;;;;;;;;;;765214;183;921748;-58
2022/09/22 03:01:44;;;;;;;22.07;14.20;;;;;;;;;;765051;183;919618;-58
2022/09/22 03:04:10;;;;;;;21.30;15.00;;;;;;;;;;766874;182;918546;-56
2022/09/22 03:06:37;;;;;;;21.50;14.43;;;;;;;;;;774543;180;815712;-57
2022/09/22 03:09:02;;;;;;;22.95;14.05;;;;;;;;;;763922;183;918749;-56
2022/09/22 03:11:28;;;;;;;27.57;14.70;;;;;;;;;;761272;183;919698;-56
2022/09/22 03:13:53;;;;;;;47.43;15.13;;;;;;;;;;756475;183;919184;-56
2022/09/22 03:16:19;;;;;;;26.58;13.85;;;;;;;;;;771064;183;918656;-56
2022/09/22 03:18:45;;;;;;;53.27;13.80;;;;;;;;;;754332;183;913091;-55
2022/09/22 03:21:11;;;;;;;19.40;12.07;;;;;;;;;;755970;183;920956;-58
2022/09/22 03:23:37;;;;;;;32.10;14.00;;;;;;;;;;761060;184;918706;-57
2022/09/22 03:26:03;;;;;;;27.93;14.57;;;;;;;;;;754698;183;918573;-59
2022/09/22 03:28:29;;;;;;;42.65;14.35;;;;;;;;;;757806;183;919081;-57
2022/09/22 03:30:54;;;;;;;47.63;15.73;;;;;;;;;;762301;183;919152;-58
2022/09/22 03:33:20;;;;;;;35.80;14.30;;;;;;;;;;771197;182;919682;-56
2022/09/22 03:35:46;;;;;;;42.73;12.60;;;;;;;;;;763294;183;921255;-57
2022/09/22 03:38:12;;;;;;;63.83;15.43;;;;;;;;;;759434;183;919868;-56
2022/09/22 03:40:38;;;;;;;56.03;13.40;;;;;;;;;;764107;183;922949;-56
2022/09/22 03:43:04;;;;;;;54.37;11.80;;;;;;;;;;754195;183;919640;-59
2022/09/22 03:45:29;;;;;;;49.13;13.53;;;;;;;;;;768891;180;819185;-57
2022/09/22 03:47:55;;;;;;;40.00;12.53;;;;;;;;;;777949;180;918903;-58
2022/09/22 03:50:21;;;;;;;73.90;15.50;;;;;;;;;;764738;180;918912;-56
2022/09/22 03:52:47;;;;;;;70.77;13.80;;;;;;;;;;754417;183;817086;-55
2022/09/22 03:55:13;;;;;;;80.67;15.47;;;;;;;;;;764008;183;816074;-57
2022/09/22 03:57:39;;;;;;;83.93;13.87;;;;;;;;;;753740;183;918719;-59
2022/09/22 04:00:06;;;;;;;73.78;13.85;;;;;;;;;;756387;184;918478;-56
2022/09/22 04:02:31;;;;;;;80.23;13.27;;;;;;;;;;766138;180;918598;-57
2022/09/22 04:04:57;;;;;;;44.63;14.97;;;;;;;;;;781213;176;919490;-56
2022/09/22 04:07:23;;;;;;;16.27;11.87;;;;;;;;;;773155;178;918512;-56
2022/09/22 04:09:48;;;;;;;25.20;12.27;;;;;;;;;;774376;179;912821;-58
2022/09/22 04:12:14;;;;;;;43.70;12.02;;;;;;;;;;769999;183;922953;-58
2022/09/22 04:14:40;;;;;;;41.87;11.50;;;;;;;;;;763332;183;919192;-58
2022/09/22 04:17:06;;;;;;;30.47;12.40;;;;;;;;;;758868;183;918914;-57
2022/09/22 04:19:34;;;;;;;64.90;12.43;;;;;;;;;;762121;183;918947;-57
2022/09/22 04:21:58;;;;;;;28.58;12.98;;;;;;;;;;757305;184;917725;-58
2022/09/22 04:24:24;;;;;;;29.03;10.77;;;;;;;;;;758502;183;918890;-58
2022/09/22 04:26:50;;;;;;;36.07;13.30;;;;;;;;;;756735;183;814323;-57
2022/09/22 04:29:16;;;;;;;23.07;10.83;;;;;;;;;;762784;183;917264;-58
2022/09/22 04:31:42;;;;;;;20.87;11.47;;;;;;;;;;763663;180;897807;-57
2022/09/22 04:34:07;;;;;;;16.73;10.63;;;;;;;;;;773720;177;818840;-56
2022/09/22 04:36:34;;;;;;;17.23;11.43;;;;;;;;;;768772;180;816371;-58
2022/09/22 04:39:02;;;;;;;14.67;10.53;;;;;;;;;;754780;183;917797;-57
2022/09/22 04:41:26;;;;;;;11.97;9.80;;;;;;;;;;754086;183;915962;-56
2022/09/22 04:43:52;;;;;;;11.60;9.10;;;;;;;;;;759289;183;918582;-58
2022/09/22 04:46:18;;;;;;;13.23;8.80;;;;;;;;;;757895;183;817478;-57
2022/09/22 04:48:44;;;;;;;18.00;11.40;;;;;;;;;;755799;183;919475;-58
2022/09/22 04:51:09;;;;;;;12.20;10.07;;;;;;;;;;756974;181;888436;-57
2022/09/22 04:53:35;;;;;;;14.83;10.00;;;;;;;;;;763582;183;922012;-58
2022/09/22 04:56:01;;;;;;;26.07;13.90;;;;;;;;;;757440;183;922886;-56
2022/09/22 04:58:27;;;;;;;88.83;15.80;;;;;;;;;;761076;183;821728;-58
2022/09/22 05:00:54;;;;;;;32.07;11.23;;;;;;;;;;762268;183;919065;-57
2022/09/22 05:03:19;;;;;;;22.40;9.57;;;;;;;;;;755240;184;918738;-57
2022/09/22 05:05:44;;;;;;;15.32;10.25;;;;;;;;;;756226;183;818158;-59
2022/09/22 05:08:10;;;;;;;31.20;12.07;;;;;;;;;;762723;183;816106;-57
2022/09/22 05:10:36;;;;;;;23.63;9.50;;;;;;;;;;756968;183;871953;-56
2022/09/22 05:13:02;;;;;;;17.70;9.20;;;;;;;;;;755764;184;890836;-59
2022/09/22 05:15:31;;;;;;;27.10;10.40;;;;;;;;;;762867;183;816663;-57
2022/09/22 05:17:54;;;;;;;20.60;10.43;;;;;;;;;;767694;180;919372;-56
2022/09/22 05:20:20;;;;;;;24.27;9.95;;;;;;;;;;757428;183;916498;-59
2022/09/22 05:22:46;;;;;;;20.40;10.43;;;;;;;;;;756255;183;912432;-58
2022/09/22 05:25:12;;;;;;;30.73;10.47;;;;;;;;;;763846;183;913606;-56
2022/09/22 05:27:43;;;;;;;23.50;10.97;;;;;;;;;;756363;184;914886;-58
2022/09/22 05:30:09;;;;;;;28.00;13.40;;;;;;;;;;754735;184;919786;-56
2022/09/22 05:32:35;;;;;;;48.23;16.43;;;;;;;;;;761570;183;918269;-57
2022/09/22 05:35:01;;;;;;;53.80;15.70;;;;;;;;;;754342;183;918626;-57
2022/09/22 05:37:26;;;;;;;32.43;16.60;;;;;;;;;;756826;183;918860;-58
2022/09/22 05:39:52;;;;;;;25.63;16.30;;;;;;;;;;758119;183;922510;-57
2022/09/22 05:42:19;;;;;;;38.23;16.97;;;;;;;;;;763026;183;918158;-55
2022/09/22 05:44:44;;;;;;;29.73;17.37;;;;;;;;;;757921;183;919433;-58
2022/09/22 05:47:10;;;;;;;31.50;15.20;;;;;;;;;;765327;179;909154;-54
2022/09/22 05:49:36;;;;;;;38.20;17.20;;;;;;;;;;767567;181;864279;-55
2022/09/22 05:52:02;;;;;;;29.33;15.73;;;;;;;;;;765051;179;912117;-56
2022/09/22 05:54:27;;;;;;;24.27;15.97;;;;;;;;;;756672;182;917886;-58
2022/09/22 05:56:54;;;;;;;25.10;15.20;;;;;;;;;;760143;183;923079;-58
2022/09/22 05:59:19;;;;;;;20.80;14.67;;;;;;;;;;756346;183;915996;-56
2022/09/22 06:01:45;;;;;;;21.90;15.23;;;;;;;;;;758745;183;906248;-57
2022/09/22 06:04:11;;;;;;;21.50;15.10;;;;;;;;;;756495;183;918299;-58
2022/09/22 06:06:37;;;;;;;23.70;16.60;;;;;;;;;;756748;183;916980;-56
2022/09/22 06:09:03;;;;;;;28.70;19.17;;;;;;;;;;754890;183;918738;-55
2022/09/22 06:11:29;;;;;;;26.52;19.67;;;;;;;;;;754788;183;921634;-57
2022/09/22 06:13:54;;;;;;;28.17;19.53;;;;;;;;;;761064;183;919569;-56
2022/09/22 06:16:20;;;;;;;33.80;19.40;;;;;;;;;;756578;183;930911;-56
2022/09/22 06:18:46;;;;;;;25.13;17.60;;;;;;;;;;755602;184;920166;-56
2022/09/22 06:21:12;;;;;;;24.93;16.40;;;;;;;;;;760979;184;920045;-56
2022/09/22 06:23:38;;;;;;;25.17;16.70;;;;;;;;;;757869;184;916984;-56
2022/09/22 06:26:04;;;;;;;28.00;18.43;;;;;;;;;;756296;183;919236;-57
2022/09/22 06:28:31;;;;;;;37.75;22.48;;;;;;;;;;760696;181;918341;-55
2022/09/22 06:30:57;;;;;;;36.00;22.10;;;;;;;;;;768220;182;821035;-55
2022/09/22 06:33:23;;;;;;;37.70;22.30;;;;;;;;;;758708;183;818394;-55
2022/09/22 06:35:49;;;;;;;42.57;24.70;;;;;;;;;;759144;183;919542;-56
2022/09/22 06:38:15;;;;;;;40.47;24.07;;;;;;;;;;761011;183;919908;-56
2022/09/22 06:40:41;;;;;;;37.60;21.80;;;;;;;;;;757316;183;919262;-55
2022/09/22 06:43:10;;;;;;;37.80;22.27;;;;;;;;;;760700;183;918266;-56
2022/09/22 06:45:33;;;;;;;34.53;21.10;;;;;;;;;;761310;183;916604;-56
2022/09/22 06:48:00;;;;;;;34.30;19.80;;;;;;;;;;759104;183;937344;-57
2022/09/22 06:50:29;;;;;;;30.10;17.97;;;;;;;;;;757724;183;918764;-56
2022/09/22 06:52:51;;;;;;;33.27;19.80;;;;;;;;;;758776;183;961254;-56
2022/09/22 06:55:19;;;;;;;25.27;16.27;;;;;;;;;;760261;183;814403;-56
2022/09/22 06:57:43;;;;;;;27.60;16.40;;;;;;;;;;758418;183;922605;-58
2022/09/22 07:00:10;;;;;;;33.30;18.30;;;;;;;;;;753992;183;941450;-58
2022/09/22 07:02:36;;;;;;;23.93;16.67;;;;;;;;;;759356;183;918616;-57
2022/09/22 07:05:02;;;;;;;28.87;19.10;;;;;;;;;;755896;183;914705;-57
2022/09/22 07:07:27;;;;;;;30.20;17.53;;;;;;;;;;757446;181;915541;-58
2022/09/22 07:09:53;;;;;;;22.50;15.90;;;;;;;;;;761499;183;921018;-55
2022/09/22 07:12:21;;;;;;;27.33;18.07;;;;;;;;;;758857;183;939116;-58
2022/09/22 07:14:48;;;;;;;32.47;18.17;;;;;;;;;;755043;183;918482;-57
2022/09/22 07:17:11;;;;;;;26.40;15.07;;;;;;;;;;757119;183;915729;-58
2022/09/22 07:19:37;;;;;;;22.20;14.17;;;;;;;;;;762908;183;808711;-59
2022/09/22 07:22:03;;;;;;;28.30;16.70;;;;;;;;;;756869;184;815147;-57
2022/09/22 07:24:29;;;;;;;25.53;17.00;;;;;;;;;;758498;183;796386;-56
2022/09/22 07:26:55;;;;;;;27.37;17.30;;;;;;;;;;762741;184;775620;-59
2022/09/22 07:29:20;;;;;;;29.00;16.60;;;;;;;;;;758540;183;913520;-57
2022/09/22 07:31:46;;;;;;;25.80;17.63;;;;;;;;;;757547;183;909938;-57
2022/09/22 07:34:13;;;;;;;24.40;15.70;;;;;;;;;;759115;183;907115;-57
2022/09/22 07:36:39;;;;;;;24.70;15.37;;;;;;;;;;757051;182;895095;-57
2022/09/22 07:39:06;;;;;;;17.73;14.00;;;;;;;;;;757834;183;919377;-58
2022/09/22 07:41:33;;;;;;;17.30;12.90;;;;;;;;;;761099;180;915761;-57
2022/09/22 07:45:11;;;;;;;23.90;13.80;;;;;;;;;;759842;183;918808;-56
2022/09/22 07:46:24;;;;;;;18.83;13.33;;;;;;;;;;756422;183;921407;-57
2022/09/22 07:48:50;;;;;;;20.00;11.93;;;;;;;;;;764455;180;919308;-57
2022/09/22 07:51:19;;;;;;;16.03;12.47;;;;;;;;;;767836;183;725598;-59
2022/09/22 07:53:44;;;;;;;16.73;13.00;;;;;;;;;;757551;183;922854;-59
2022/09/22 07:56:12;;;;;;;14.30;11.73;;;;;;;;;;756599;183;918685;-59
2022/09/22 07:58:40;;;;;;;16.33;10.93;;;;;;;;;;763061;183;815324;-57
2022/09/22 08:01:04;;;;;;;14.17;11.10;;;;;;;;;;772986;180;918989;-61
2022/09/22 08:03:31;;;;;;;18.17;11.70;;;;;;;;;;765411;178;917130;-58
2022/09/22 08:06:01;;;;;;;15.30;12.40;;;;;;;;;;756793;183;915195;-58
2022/09/22 08:08:24;;;;;;;18.60;11.63;;;;;;;;;;761821;184;880336;-57
2022/09/22 08:10:50;;;;;;;16.47;12.67;;;;;;;;;;756353;183;815832;-56
2022/09/22 08:13:15;;;;;;;18.10;12.50;;;;;;;;;;765665;177;919245;-59
2022/09/22 08:15:41;;;;;;;20.80;13.53;;;;;;;;;;767755;178;820510;-56
2022/09/22 08:18:07;;;;;;;18.50;12.40;;;;;;;;;;759619;184;816708;-59
2022/09/22 08:20:33;;;;;;;17.10;12.50;;;;;;;;;;757405;184;918790;-59
2022/09/22 08:23:03;;;;;;;16.90;12.40;;;;;;;;;;764261;183;893628;-60
2022/09/22 08:25:25;;;;;;;17.20;12.60;;;;;;;;;;753543;185;919145;-57
2022/09/22 08:27:52;;;;;;;19.33;12.10;;;;;;;;;;760905;182;923532;-57
2022/09/22 08:30:18;;;;;;;18.52;12.60;;;;;;;;;;759941;183;918778;-57
2022/09/22 08:32:44;;;;;;;24.10;12.60;;;;;;;;;;760795;183;919679;-60
2022/09/22 08:35:09;;;;;;;18.93;14.67;;;;;;;;;;757703;183;921206;-57
2022/09/22 08:37:36;;;;;;;19.87;14.17;;;;;;;;;;769252;180;919305;-59
2022/09/22 08:40:01;;;;;;;18.90;14.87;;;;;;;;;;761941;184;938928;-57
2022/09/22 08:42:27;;;;;;;23.93;14.87;;;;;;;;;;755859;183;918851;-59
2022/09/22 08:44:58;;;;;;;20.03;13.30;;;;;;;;;;753767;183;959730;-57
2022/09/22 08:52:34;;;;;;;23.60;11.70;;;;;;;;;;762087;183;920775;-56
2022/09/22 08:55:00;;;;;;;14.10;11.13;;;;;;;;;;761918;183;820467;-56
2022/09/22 08:57:41;;;;;;;19.80;10.63;;;;;;;;;;758996;183;916029;-57
2022/09/22 09:00:11;;;;;;;15.90;10.97;;;;;;;;;;757356;183;814376;-58
2022/09/22 09:02:40;;;;;;;15.67;12.63;;;;;;;;;;764695;183;915459;-59
2022/09/22 09:05:22;;;;;;;18.73;10.27;;;;;;;;;;774042;179;841826;-57
2022/09/22 09:07:57;;;;;;;14.07;11.00;;;;;;;;;;768080;180;918482;-57
2022/09/22 09:10:25;;;;;;;14.87;10.43;;;;;;;;;;756303;183;919234;-60
2022/09/22 09:12:51;;;;;;;16.15;10.48;;;;;;;;;;758114;183;919052;-58
2022/09/22 09:15:18;;;;;;;11.23;8.80;;;;;;;;;;758767;183;919432;-59
2022/09/22 09:17:44;;;;;;;15.50;8.57;;;;;;;;;;770628;180;839573;-59
2022/09/22 09:20:15;;;;;;;12.73;8.75;;;;;;;;;;769038;180;919416;-59
2022/09/22 09:22:40;;;;;;;12.60;7.23;;;;;;;;;;764832;181;910394;-57
2022/09/22 09:25:07;;;;;;;10.07;7.57;;;;;;;;;;775429;180;919715;-56
2022/09/22 09:27:32;;;;;;;8.20;6.00;;;;;;;;;;764680;180;919377;-58
2022/09/22 09:30:16;;;;;;;9.00;7.10;;;;;;;;;;760139;183;815949;-59
2022/09/22 09:32:48;;;;;;;10.53;6.53;;;;;;;;;;757466;183;917602;-59
2022/09/22 09:35:14;;;;;;;8.30;6.60;;;;;;;;;;759366;183;815839;-57
2022/09/22 09:37:40;;;;;;;10.40;7.50;;;;;;;;;;760805;183;827144;-57
2022/09/22 09:40:07;;;;;;;14.33;9.30;;;;;;;;;;755605;183;918380;-59
2022/09/22 09:42:33;;;;;;;14.83;11.00;;;;;;;;;;755739;183;919434;-57
2022/09/22 09:45:01;;;;;;;17.70;11.77;;;;;;;;;;759108;183;918924;-60
2022/09/22 09:47:31;;;;;;;13.90;10.50;;;;;;;;;;756968;183;911615;-56
2022/09/22 09:49:57;;;;;;;18.10;10.20;;;;;;;;;;757036;184;918677;-60
2022/09/22 09:52:24;;;;;;;15.73;10.80;;;;;;;;;;757943;183;918821;-57
2022/09/22 09:54:49;;;;;;;17.37;12.17;;;;;;;;;;761072;183;919560;-58
2022/09/22 09:57:15;;;;;;;13.83;11.80;;;;;;;;;;755449;183;918833;-57
2022/09/22 10:02:13;;;;;;;14.83;9.87;;;;;;;;;;761206;182;919626;-59
2022/09/22 10:04:39;;;;;;;14.23;8.93;;;;;;;;;;767119;182;919612;-58
2022/09/22 10:07:11;;;;;;;13.93;8.17;;;;;;;;;;758342;183;919355;-57
2022/09/22 10:09:36;;;;;;;12.87;8.27;;;;;;;;;;756350;183;918420;-60
2022/09/22 10:12:02;;;;;;;11.50;7.90;;;;;;;;;;766483;182;904089;-61
2022/09/22 10:14:29;;;;;;;9.83;7.20;;;;;;;;;;769661;180;918655;-57
2022/09/22 10:16:54;;;;;;;9.80;7.20;;;;;;;;;;756537;183;915353;-60
2022/09/22 10:19:20;;;;;;;9.67;7.40;;;;;;;;;;755617;184;919534;-61
2022/09/22 10:21:47;;;;;;;10.20;6.60;;;;;;;;;;761033;183;918261;-60
2022/09/22 10:24:18;;;;;;;9.20;6.60;;;;;;;;;;755113;183;918551;-57
2022/09/22 10:26:44;;;;;;;6.93;5.05;;;;;;;;;;757629;183;918916;-61
2022/09/22 10:29:17;;;;;;;13.30;8.03;;;;;;;;;;763084;183;915989;-60
2022/09/22 10:32:01;;;;;;;11.13;6.90;;;;;;;;;;766036;183;918556;-58
2022/09/22 10:34:27;;;;;;;9.83;6.60;;;;;;;;;;765422;183;916008;-58
2022/09/22 10:36:53;;;;;;;9.00;5.77;;;;;;;;;;758792;183;918753;-60
2022/09/22 10:39:19;;;;;;;7.33;6.17;;;;;;;;;;757528;183;920367;-58
2022/09/22 10:41:45;;;;;;;10.40;5.17;;;;;;;;;;762755;183;919634;-57
2022/09/22 10:44:17;;;;;;;6.70;4.87;;;;;;;;;;755728;182;918664;-61
2022/09/22 10:46:58;;;;;;;7.93;5.90;;;;;;;;;;753222;183;918793;-56
2022/09/22 10:49:41;;;;;;;7.20;5.50;;;;;;;;;;764488;180;919305;-57
2022/09/22 10:52:08;;;;;;;7.00;4.80;;;;;;;;;;768683;180;881964;-60
2022/09/22 10:54:40;;;;;;;7.80;4.93;;;;;;;;;;767146;177;918857;-60
2022/09/22 10:57:09;;;;;;;5.70;3.78;;;;;;;;;;763575;183;919291;-60
2022/09/22 10:59:32;;;;;;;5.90;4.77;;;;;;;;;;766449;180;631052;-60
2022/09/22 11:02:05;;;;;;;10.93;4.57;;;;;;;;;;761923;180;906883;-60
2022/09/22 11:04:47;;;;;;;12.23;5.30;;;;;;;;;;763838;177;919832;-58
2022/09/22 11:12:33;;;;;;;8.23;5.10;;;;;;;;;;757247;183;916262;-58
2022/09/22 11:15:01;;;;;;;8.23;5.10;;;;;;;;;;765500;181;906301;-57
2022/09/22 11:17:30;;;;;;;7.67;5.43;;;;;;;;;;759119;182;817691;-60
2022/09/22 11:19:56;;;;;;;8.30;5.37;;;;;;;;;;761787;183;918876;-57
2022/09/22 11:22:35;;;;;;;4.17;3.30;;;;;;;;;;759774;183;921496;-59
2022/09/22 11:25:01;;;;;;;6.40;4.40;;;;;;;;;;764158;183;919048;-58
2022/09/22 11:27:35;;;;;;;6.60;4.80;;;;;;;;;;761685;183;919170;-59
2022/09/22 11:29:58;;;;;;;6.70;4.90;;;;;;;;;;763575;183;721825;-59
2022/09/22 11:32:30;;;;;;;7.53;6.00;;;;;;;;;;777789;179;615361;-59
2022/09/22 11:35:12;;;;;;;6.17;5.33;;;;;;;;;;767589;182;816663;-58
2022/09/22 11:37:39;;;;;;;7.47;5.33;;;;;;;;;;771822;182;820246;-56
2022/09/22 11:40:06;;;;;;;8.50;5.83;;;;;;;;;;758207;183;920369;-56
2022/09/22 11:42:33;;;;;;;7.53;5.67;;;;;;;;;;755762;183;902018;-57
2022/09/22 11:45:19;;;;;;;8.10;5.43;;;;;;;;;;760258;183;918785;-57
2022/09/22 11:47:55;;;;;;;6.20;5.60;;;;;;;;;;755922;181;919311;-58
2022/09/22 11:50:21;;;;;;;9.07;5.40;;;;;;;;;;769525;180;917962;-56
2022/09/22 11:52:49;;;;;;;6.63;4.90;;;;;;;;;;746991;185;816867;-59
2022/09/22 11:55:17;;;;;;;6.67;5.20;;;;;;;;;;744874;185;821520;-59
2022/09/22 11:57:43;;;;;;;14.87;7.50;;;;;;;;;;742076;187;853411;-56
2022/09/22 12:00:15;;;;;;;6.63;5.13;;;;;;;;;;745478;187;917755;-57
2022/09/22 12:02:38;;;;;;;8.10;5.43;;;;;;;;;;738872;187;917929;-59
2022/09/22 12:05:06;;;;;;;5.70;4.53;;;;;;;;;;741629;188;805862;-59
2022/09/22 12:07:32;;;;;;;6.40;4.73;;;;;;;;;;749473;182;918098;-58
2022/09/22 12:09:59;;;;;;;6.20;5.13;;;;;;;;;;758513;181;918571;-56
2022/09/22 12:12:25;;;;;;;5.60;3.93;;;;;;;;;;758336;183;916460;-58
2022/09/22 12:14:51;;;;;;;4.83;3.90;;;;;;;;;;769418;179;915945;-56
2022/09/22 12:17:17;;;;;;;6.20;4.63;;;;;;;;;;774970;178;829657;-55
2022/09/22 12:19:43;;;;;;;9.73;3.80;;;;;;;;;;763654;180;919241;-59
2022/09/22 12:22:11;;;;;;;8.60;4.20;;;;;;;;;;754766;183;920010;-58
2022/09/22 12:24:36;;;;;;;5.68;3.70;;;;;;;;;;758144;183;815961;-57
2022/09/22 12:27:08;;;;;;;6.73;5.20;;;;;;;;;;748209;184;922877;-58
2022/09/22 12:29:35;;;;;;;8.97;4.00;;;;;;;;;;748401;184;838690;-58
2022/09/22 12:32:00;;;;;;;5.63;4.50;;;;;;;;;;761397;183;871143;-58
2022/09/22 12:34:26;;;;;;;5.97;4.47;;;;;;;;;;762619;183;817966;-57
2022/09/22 12:36:52;;;;;;;6.00;3.83;;;;;;;;;;758617;183;918593;-56
2022/09/22 12:39:18;;;;;;;9.00;4.63;;;;;;;;;;756618;183;918457;-56
2022/09/22 12:41:46;;;;;;;4.87;3.42;;;;;;;;;;762420;183;919283;-59
2022/09/22 12:44:10;;;;;;;6.40;4.13;;;;;;;;;;771752;180;868191;-59
2022/09/22 12:46:37;;;;;;;6.70;3.87;;;;;;;;;;772572;177;919358;-56
2022/09/22 12:49:02;;;;;;;5.07;3.30;;;;;;;;;;766719;178;817641;-58
2022/09/22 12:51:28;;;;;;;5.63;3.27;;;;;;;;;;762475;183;717433;-56
2022/09/22 12:54:10;;;;;;;5.67;3.83;;;;;;;;;;755087;183;944143;-56
2022/09/22 12:56:43;;;;;;;4.50;3.77;;;;;;;;;;751631;182;916087;-57
2022/09/22 12:59:14;;;;;;;5.28;3.90;;;;;;;;;;772251;177;918501;-58
2022/09/22 13:01:40;;;;;;;6.60;4.03;;;;;;;;;;756641;183;874637;-58
2022/09/22 13:04:11;;;;;;;8.50;5.17;;;;;;;;;;762309;183;916112;-56
2022/09/22 13:06:51;;;;;;;5.73;4.60;;;;;;;;;;757882;181;908247;-59
2022/09/22 13:09:17;;;;;;;4.87;3.70;;;;;;;;;;754307;183;916508;-58
2022/09/22 13:11:49;;;;;;;5.30;3.87;;;;;;;;;;754671;183;921746;-57
2022/09/22 13:14:20;;;;;;;6.00;3.40;;;;;;;;;;758989;183;917723;-56
2022/09/22 13:16:46;;;;;;;5.10;3.80;;;;;;;;;;769245;180;918385;-59
2022/09/22 13:19:13;;;;;;;5.30;3.93;;;;;;;;;;761324;183;711386;-56
2022/09/22 13:21:40;;;;;;;6.03;3.97;;;;;;;;;;756138;183;919729;-58
2022/09/22 13:24:07;;;;;;;8.20;3.45;;;;;;;;;;760981;183;918858;-58
2022/09/22 13:26:33;;;;;;;4.80;2.73;;;;;;;;;;755507;183;854382;-57
2022/09/22 13:29:00;;;;;;;4.07;2.60;;;;;;;;;;756246;183;912470;-59
2022/09/22 13:31:25;;;;;;;4.30;3.00;;;;;;;;;;757398;183;819162;-56
2022/09/22 13:33:51;;;;;;;3.93;3.07;;;;;;;;;;761511;183;919802;-58
2022/09/22 13:36:17;;;;;;;3.60;2.63;;;;;;;;;;753618;183;913015;-59
2022/09/22 13:38:44;;;;;;;3.90;2.63;;;;;;;;;;758628;184;817421;-56
2022/09/22 13:41:13;;;;;;;4.90;2.80;;;;;;;;;;763183;183;938254;-56
2022/09/22 13:43:38;;;;;;;7.60;3.17;;;;;;;;;;762130;181;919633;-58
2022/09/22 13:46:04;;;;;;;4.57;3.00;;;;;;;;;;760206;181;918904;-56
2022/09/22 13:48:30;;;;;;;5.20;3.20;;;;;;;;;;756522;183;922033;-58
2022/09/22 13:50:56;;;;;;;7.80;3.40;;;;;;;;;;761951;183;919832;-58
2022/09/22 13:53:22;;;;;;;3.33;2.50;;;;;;;;;;766812;180;918228;-57
2022/09/22 13:55:48;;;;;;;5.28;2.80;;;;;;;;;;761559;182;840857;-56
2022/09/22 13:58:15;;;;;;;5.27;2.60;;;;;;;;;;761040;183;827313;-56
2022/09/22 14:00:43;;;;;;;4.20;2.97;;;;;;;;;;755687;183;914452;-57
2022/09/22 14:03:11;;;;;;;4.17;2.90;;;;;;;;;;755179;182;864768;-56
2022/09/22 14:05:37;;;;;;;5.80;2.90;;;;;;;;;;770899;180;812790;-58
2022/09/22 14:08:03;;;;;;;3.87;2.10;;;;;;;;;;776805;180;815974;-58
2022/09/22 14:10:29;;;;;;;3.77;2.50;;;;;;;;;;764952;180;816724;-57
2022/09/22 14:12:55;;;;;;;2.80;1.77;;;;;;;;;;758552;183;813796;-56
2022/09/22 14:15:26;;;;;;;3.27;2.00;;;;;;;;;;762655;183;917511;-58
2022/09/22 14:17:52;;;;;;;3.27;1.67;;;;;;;;;;755788;184;917264;-56
2022/09/22 14:20:19;;;;;;;2.67;1.80;;;;;;;;;;757133;183;919555;-58
2022/09/22 14:22:44;;;;;;;3.43;2.00;;;;;;;;;;755702;183;921513;-59
2022/09/22 14:25:14;;;;;;;5.17;2.30;;;;;;;;;;773854;180;816672;-57
2022/09/22 14:27:41;;;;;;;4.20;2.83;;;;;;;;;;763543;177;936810;-58